createdAt,value
2023-04-20T00:02:21.793Z,100.00
2023-04-20T00:04:54.606Z,100.00
2023-04-20T00:07:27.514Z,100.00
2023-04-20T00:10:01.870Z,100.00
2023-04-20T00:12:34.483Z,100.00
2023-04-20T00:15:07.901Z,100.00
2023-04-20T00:17:40.653Z,100.00
2023-04-20T00:20:15.402Z,100.00
2023-04-20T00:22:48.706Z,100.00
2023-04-20T00:25:21.251Z,100.00
2023-04-20T00:27:53.592Z,100.00
2023-04-20T00:30:25.882Z,100.00
2023-04-20T00:32:58.281Z,100.00
2023-04-20T00:35:30.780Z,100.00
2023-04-20T00:38:02.908Z,100.00
2023-04-20T00:40:35.554Z,100.00
2023-04-20T00:43:16.252Z,100.00
2023-04-20T00:45:52.074Z,100.00
2023-04-20T00:48:24.876Z,100.00
2023-04-20T00:50:57.824Z,100.00
2023-04-20T00:53:29.912Z,100.00
2023-04-20T00:56:02.324Z,100.00
2023-04-20T00:58:37.148Z,100.00
2023-04-20T01:01:10.069Z,100.00
2023-04-20T01:03:43.254Z,100.00
2023-04-20T01:06:16.515Z,100.00
2023-04-20T01:08:53.267Z,100.00
2023-04-20T01:11:25.745Z,100.00
2023-04-20T01:13:57.923Z,100.00
2023-04-20T01:16:30.154Z,100.00
2023-04-20T01:19:02.365Z,100.00
2023-04-20T01:21:38.731Z,100.00
2023-04-20T01:24:11.555Z,100.00
2023-04-20T01:26:43.950Z,100.00
2023-04-20T01:29:16.282Z,100.00
2023-04-20T01:31:49.910Z,100.00
2023-04-20T01:34:24.415Z,100.00
2023-04-20T01:36:59.714Z,100.00
2023-04-20T01:39:31.898Z,100.00
2023-04-20T01:42:08.070Z,100.00
2023-04-20T01:44:41.744Z,100.00
2023-04-20T01:47:13.990Z,100.00
2023-04-20T01:49:46.349Z,100.00
2023-04-20T01:52:18.583Z,100.00
2023-04-20T01:54:50.994Z,100.00
2023-04-20T01:57:23.283Z,100.00
2023-04-20T01:59:56.405Z,100.00
2023-04-20T02:02:29.838Z,100.00
2023-04-20T02:05:02.213Z,100.00
2023-04-20T02:07:34.258Z,100.00
2023-04-20T02:10:09.294Z,100.00
2023-04-20T02:12:42.106Z,100.00
2023-04-20T02:15:17.147Z,100.00
2023-04-20T02:17:52.346Z,100.00
2023-04-20T02:20:25.117Z,100.00
2023-04-20T02:22:57.458Z,100.00
2023-04-20T02:25:29.865Z,100.00
2023-04-20T02:28:02.002Z,100.00
2023-04-20T02:30:34.477Z,100.00
2023-04-20T02:33:06.902Z,100.00
2023-04-20T02:35:42.038Z,100.00
2023-04-20T02:38:16.755Z,100.00
2023-04-20T02:40:48.841Z,100.00
2023-04-20T02:43:21.496Z,100.00
2023-04-20T02:45:54.010Z,100.00
2023-04-20T02:48:27.356Z,100.00
2023-04-20T02:50:59.691Z,100.00
2023-04-20T02:53:37.858Z,100.00
2023-04-20T02:56:29.432Z,100.00
2023-04-20T02:59:06.830Z,100.00
2023-04-20T03:01:59.248Z,100.00
2023-04-20T03:04:34.009Z,100.00
2023-04-20T03:07:24.278Z,100.00
2023-04-20T03:09:57.314Z,100.00
2023-04-20T03:12:48.344Z,100.00
2023-04-20T03:15:35.752Z,100.00
2023-04-20T03:18:12.877Z,100.00
2023-04-20T03:20:45.392Z,100.00
2023-04-20T03:23:17.493Z,100.00
2023-04-20T03:25:50.267Z,100.00
2023-04-20T03:28:36.347Z,100.00
2023-04-20T03:31:08.676Z,100.00
2023-04-20T03:33:40.818Z,100.00
2023-04-20T03:36:13.331Z,100.00
2023-04-20T03:38:45.460Z,100.00
2023-04-20T03:41:17.667Z,100.00
2023-04-20T03:43:49.775Z,100.00
2023-04-20T03:46:23.207Z,100.00
2023-04-20T03:48:55.691Z,100.00
2023-04-20T03:51:28.740Z,100.00
2023-04-20T03:54:00.948Z,100.00
2023-04-20T03:56:33.777Z,100.00
2023-04-20T03:59:09.088Z,100.00
2023-04-20T04:01:42.406Z,100.00
2023-04-20T04:04:14.902Z,100.00
2023-04-20T04:06:47.118Z,100.00
2023-04-20T04:09:19.381Z,100.00
2023-04-20T04:11:51.535Z,100.00
2023-04-20T04:14:24.211Z,100.00
2023-04-20T04:16:56.426Z,100.00
2023-04-20T04:19:28.562Z,100.00
2023-04-20T04:22:00.614Z,100.00
2023-04-20T04:24:33.829Z,100.00
2023-04-20T04:27:34.972Z,100.00
2023-04-20T04:30:54.299Z,100.00
2023-04-20T04:33:46.550Z,100.00
2023-04-20T04:36:24.281Z,100.00
2023-04-20T04:38:56.796Z,100.00
2023-04-20T04:41:29.269Z,100.00
2023-04-20T04:44:11.216Z,100.00
2023-04-20T04:46:47.847Z,100.00
2023-04-20T04:49:20.783Z,100.00
2023-04-20T04:51:53.230Z,100.00
2023-04-20T04:54:25.440Z,100.00
2023-04-20T04:56:58.334Z,100.00
2023-04-20T04:59:30.596Z,100.00
2023-04-20T05:02:02.783Z,100.00
2023-04-20T05:04:36.483Z,100.00
2023-04-20T05:07:11.090Z,100.00
2023-04-20T05:09:43.408Z,100.00
2023-04-20T05:12:15.694Z,100.00
2023-04-20T05:14:47.932Z,100.00
2023-04-20T05:17:22.258Z,100.00
2023-04-20T05:23:04.461Z,100.00
2023-04-20T05:25:36.709Z,100.00
2023-04-20T05:28:09.199Z,100.00
2023-04-20T05:30:41.375Z,100.00
2023-04-20T05:33:13.505Z,100.00
2023-04-20T05:36:21.742Z,100.00
2023-04-20T05:38:56.686Z,100.00
2023-04-20T05:42:14.393Z,100.00
2023-04-20T05:48:18.732Z,100.00
2023-04-20T05:50:51.095Z,100.00
2023-04-20T05:53:23.316Z,100.00
2023-04-20T05:55:55.412Z,100.00
2023-04-20T05:58:28.602Z,100.00
2023-04-20T06:01:02.510Z,100.00
2023-04-20T06:03:34.860Z,100.00
2023-04-20T06:06:08.052Z,100.00
2023-04-20T06:08:40.954Z,100.00
2023-04-20T06:11:13.109Z,100.00
2023-04-20T06:13:45.381Z,100.00
2023-04-20T06:16:20.902Z,100.00
2023-04-20T06:18:54.291Z,100.00
2023-04-20T06:21:27.406Z,100.00
2023-04-20T06:23:59.636Z,100.00
2023-04-20T06:26:31.697Z,100.00
2023-04-20T06:29:04.849Z,100.00
2023-04-20T06:31:37.276Z,100.00
2023-04-20T06:34:09.549Z,100.00
2023-04-20T06:36:44.879Z,100.00
2023-04-20T06:39:19.641Z,100.00
2023-04-20T06:41:51.994Z,100.00
2023-04-20T06:44:27.551Z,100.00
2023-04-20T06:47:02.132Z,100.00
2023-04-20T06:49:34.704Z,100.00
2023-04-20T06:52:07.262Z,100.00
2023-04-20T06:54:39.436Z,100.00
2023-04-20T06:57:11.596Z,100.00
2023-04-20T06:59:43.711Z,100.00
2023-04-20T07:02:16.076Z,100.00
2023-04-20T07:04:50.797Z,100.00
2023-04-20T07:07:24.317Z,100.00
2023-04-20T07:09:56.431Z,100.00
2023-04-20T07:12:28.588Z,100.00
2023-04-20T07:15:00.851Z,100.00
2023-04-20T07:17:33.348Z,100.00
2023-04-20T07:20:08.411Z,100.00
2023-04-20T07:22:40.989Z,100.00
2023-04-20T07:25:13.133Z,100.00
2023-04-20T07:27:45.331Z,100.00
2023-04-20T07:30:17.961Z,100.00
2023-04-20T07:32:50.360Z,100.00
2023-04-20T07:35:23.085Z,100.00
2023-04-20T07:37:55.170Z,100.00
2023-04-20T07:40:27.585Z,100.00
2023-04-20T07:42:59.994Z,100.00
2023-04-20T07:45:32.162Z,100.00
2023-04-20T07:48:05.720Z,100.00
2023-04-20T07:50:37.964Z,100.00
2023-04-20T07:53:10.392Z,100.00
2023-04-20T07:55:42.526Z,100.00
2023-04-20T07:58:16.401Z,100.00
2023-04-20T08:00:49.858Z,100.00
2023-04-20T08:03:22.212Z,100.00
2023-04-20T08:05:54.466Z,100.00
2023-04-20T08:08:27.599Z,100.00
2023-04-20T08:11:00.672Z,100.00
2023-04-20T08:13:32.681Z,100.00
2023-04-20T08:16:04.858Z,100.00
2023-04-20T08:18:36.928Z,100.00
2023-04-20T08:21:09.163Z,100.00
2023-04-20T08:23:41.534Z,100.00
2023-04-20T08:26:17.826Z,100.00
2023-04-20T08:28:50.338Z,100.00
2023-04-20T08:31:23.021Z,100.00
2023-04-20T08:33:55.259Z,100.00
2023-04-20T08:36:28.177Z,100.00
2023-04-20T08:39:10.154Z,100.00
2023-04-20T08:41:42.551Z,100.00
2023-04-20T08:44:15.655Z,100.00
2023-04-20T08:46:50.406Z,100.00
2023-04-20T08:49:28.388Z,100.00
2023-04-20T08:52:01.127Z,100.00
2023-04-20T08:54:35.119Z,100.00
2023-04-20T08:57:07.686Z,100.00
2023-04-20T08:59:41.835Z,100.00
2023-04-20T09:02:15.288Z,100.00
2023-04-20T09:04:49.239Z,100.00
2023-04-20T09:07:22.777Z,99.91
2023-04-20T09:09:58.752Z,98.46
2023-04-20T09:12:41.516Z,98.49
2023-04-20T09:15:25.128Z,97.96
2023-04-20T09:17:57.826Z,97.36
2023-04-20T09:20:36.716Z,97.23
2023-04-20T09:23:16.215Z,97.22
2023-04-20T09:25:53.196Z,96.93
2023-04-20T09:28:25.450Z,95.36
2023-04-20T09:30:57.548Z,95.33
2023-04-20T09:33:32.841Z,95.41
2023-04-20T09:36:08.010Z,95.42
2023-04-20T09:38:40.118Z,95.70
2023-04-20T09:41:12.578Z,95.95
2023-04-20T09:43:45.663Z,95.66
2023-04-20T09:46:17.870Z,95.61
2023-04-20T09:48:50.587Z,94.92
2023-04-20T09:51:23.806Z,95.50
2023-04-20T09:53:56.457Z,92.97
2023-04-20T09:56:29.108Z,92.95
2023-04-20T09:59:02.156Z,93.62
2023-04-20T10:01:36.611Z,93.40
2023-04-20T10:04:14.319Z,91.82
2023-04-20T10:06:58.031Z,92.42
2023-04-20T10:09:31.247Z,92.87
2023-04-20T10:12:12.353Z,92.03
2023-04-20T10:14:45.724Z,91.82
2023-04-20T10:17:18.295Z,91.17
2023-04-20T10:19:51.702Z,91.55
2023-04-20T10:26:51.677Z,90.56
2023-04-20T10:30:02.236Z,90.42
2023-04-20T10:32:34.501Z,89.18
2023-04-20T10:38:39.903Z,90.72
2023-04-20T10:41:13.147Z,89.70
2023-04-20T10:43:45.428Z,89.30
2023-04-20T10:46:25.517Z,87.99
2023-04-20T10:48:59.117Z,87.38
2023-04-20T10:51:38.101Z,87.39
2023-04-20T10:58:43.181Z,87.40
2023-04-20T11:02:19.221Z,86.79
2023-04-20T11:05:01.207Z,86.89
2023-04-20T11:08:18.877Z,85.89
2023-04-20T11:10:51.030Z,86.18
2023-04-20T11:13:25.829Z,86.03
2023-04-20T11:20:30.380Z,86.78
2023-04-20T11:23:05.102Z,86.83
2023-04-20T11:30:21.475Z,85.61
2023-04-20T11:40:40.009Z,81.25
2023-04-20T11:43:19.050Z,83.23
2023-04-20T11:54:20.208Z,80.43
2023-04-20T11:56:52.645Z,77.94
2023-04-20T11:59:30.892Z,80.22
2023-04-20T12:02:05.759Z,81.00
2023-04-20T12:04:45.561Z,81.47
2023-04-20T12:07:17.801Z,79.82
2023-04-20T12:09:57.965Z,77.82
2023-04-20T12:12:30.208Z,74.73
2023-04-20T12:23:55.118Z,75.01
2023-04-20T12:31:01.061Z,74.52
2023-04-20T12:33:33.259Z,73.47
2023-04-20T12:36:05.547Z,73.38
2023-04-20T12:38:43.942Z,72.84
2023-04-20T12:41:17.686Z,74.97
2023-04-20T12:47:44.364Z,75.17
2023-04-20T12:50:16.750Z,72.41
2023-04-20T12:57:13.540Z,71.89
2023-04-20T12:59:45.604Z,72.15
2023-04-20T13:02:18.369Z,73.44
2023-04-20T13:04:56.995Z,72.64
2023-04-20T13:07:29.199Z,72.85
2023-04-20T13:10:03.461Z,68.71
2023-04-20T13:13:09.821Z,70.44
2023-04-20T13:15:48.329Z,69.97
2023-04-20T13:18:20.817Z,71.39
2023-04-20T13:21:20.662Z,71.49
2023-04-20T13:28:25.750Z,62.99
2023-04-20T13:30:58.348Z,67.00
2023-04-20T13:33:37.084Z,68.31
2023-04-20T13:41:46.569Z,67.72
2023-04-20T13:44:25.156Z,66.68
2023-04-20T13:46:57.250Z,65.59
2023-04-20T13:49:29.413Z,63.82
2023-04-20T13:52:07.410Z,64.43
2023-04-20T13:54:39.674Z,63.81
2023-04-20T13:57:12.131Z,64.00
2023-04-20T13:59:51.043Z,63.69
2023-04-20T14:02:24.988Z,57.28
2023-04-20T14:09:34.313Z,60.28
2023-04-20T14:15:59.808Z,62.91
2023-04-20T14:18:32.012Z,63.19
2023-04-20T14:21:04.174Z,62.30
2023-04-20T14:28:16.659Z,63.32
2023-04-20T14:35:09.306Z,63.56
2023-04-20T14:38:03.814Z,62.07
2023-04-20T14:40:36.023Z,62.95
2023-04-20T14:47:06.226Z,62.47
2023-04-20T14:49:50.023Z,61.76
2023-04-20T14:52:28.180Z,61.87
2023-04-20T14:55:00.557Z,62.55
2023-04-20T15:02:07.587Z,60.73
2023-04-20T15:04:46.516Z,61.08
2023-04-20T15:07:19.346Z,61.31
2023-04-20T15:14:25.668Z,60.94
2023-04-20T15:17:00.497Z,61.20
2023-04-20T15:19:32.670Z,60.92
2023-04-20T15:22:04.868Z,61.73
2023-04-20T15:24:36.962Z,61.58
2023-04-20T15:27:09.221Z,61.75
2023-04-20T15:29:41.349Z,61.80
2023-04-20T15:32:13.643Z,61.53
2023-04-20T15:34:45.945Z,61.92
2023-04-20T15:37:18.010Z,61.89
2023-04-20T15:39:50.147Z,62.06
2023-04-20T15:42:22.582Z,61.93
2023-04-20T15:44:54.686Z,62.10
2023-04-20T15:47:26.840Z,62.38
2023-04-20T15:50:01.560Z,62.26
2023-04-20T15:52:34.351Z,62.37
2023-04-20T15:55:08.958Z,62.54
2023-04-20T15:57:42.534Z,62.61
2023-04-20T16:00:17.074Z,63.03
2023-04-20T16:02:49.501Z,62.98
2023-04-20T16:05:22.216Z,63.14
2023-04-20T16:07:54.748Z,63.28
2023-04-20T16:10:28.227Z,63.69
2023-04-20T16:13:00.475Z,63.73
2023-04-20T16:15:33.814Z,64.00
2023-04-20T16:18:06.409Z,64.26
2023-04-20T16:20:40.701Z,64.22
2023-04-20T16:23:13.640Z,64.42
2023-04-20T16:25:46.062Z,64.68
2023-04-20T16:28:18.252Z,65.07
2023-04-20T16:30:50.601Z,65.39
2023-04-20T16:33:23.314Z,65.48
2023-04-20T16:35:55.600Z,65.67
2023-04-20T16:38:27.852Z,65.88
2023-04-20T16:41:00.137Z,66.14
2023-04-20T16:43:32.255Z,66.29
2023-04-20T16:46:04.914Z,66.36
2023-04-20T16:48:37.168Z,66.54
2023-04-20T16:51:09.913Z,66.64
2023-04-20T16:53:42.072Z,67.01
2023-04-20T16:56:14.259Z,67.02
2023-04-20T16:58:47.134Z,67.42
2023-04-20T17:01:19.346Z,67.66
2023-04-20T17:03:51.945Z,68.11
2023-04-20T17:06:24.180Z,68.20
2023-04-20T17:09:01.452Z,68.59
2023-04-20T17:11:35.959Z,68.64
2023-04-20T17:14:08.326Z,68.50
2023-04-20T17:16:40.737Z,68.89
2023-04-20T17:19:12.836Z,69.22
2023-04-20T17:21:45.752Z,69.61
2023-04-20T17:24:21.910Z,69.93
2023-04-20T17:26:54.343Z,69.85
2023-04-20T17:29:26.904Z,70.10
2023-04-20T17:31:59.487Z,70.48
2023-04-20T17:34:31.727Z,70.60
2023-04-20T17:37:03.936Z,70.76
2023-04-20T17:39:36.053Z,70.92
2023-04-20T17:42:08.526Z,71.15
2023-04-20T17:44:40.615Z,71.33
2023-04-20T17:47:15.025Z,71.40
2023-04-20T17:49:47.173Z,71.53
2023-04-20T17:52:25.354Z,72.04
2023-04-20T17:55:00.056Z,72.02
2023-04-20T17:57:32.427Z,72.06
2023-04-20T18:00:05.400Z,72.19
2023-04-20T18:02:44.301Z,72.52
2023-04-20T18:05:17.117Z,72.60
2023-04-20T18:07:49.491Z,72.69
2023-04-20T18:10:21.792Z,72.75
2023-04-20T18:12:54.531Z,72.94
2023-04-20T18:15:28.205Z,73.24
2023-04-20T18:18:03.409Z,73.36
2023-04-20T18:20:35.673Z,73.46
2023-04-20T18:23:08.110Z,73.49
2023-04-20T18:25:40.814Z,73.73
2023-04-20T18:28:12.986Z,74.16
2023-04-20T18:30:45.340Z,74.50
2023-04-20T18:33:17.452Z,74.84
2023-04-20T18:35:50.119Z,75.15
2023-04-20T18:38:22.334Z,75.45
2023-04-20T18:41:03.361Z,75.37
2023-04-20T18:43:37.151Z,75.47
2023-04-20T18:46:09.514Z,75.45
2023-04-20T18:49:03.796Z,75.61
2023-04-20T18:51:36.435Z,75.95
2023-04-20T18:54:08.885Z,76.00
2023-04-20T19:01:13.624Z,76.70
2023-04-20T19:03:52.875Z,76.92
2023-04-20T19:06:26.166Z,77.45
2023-04-20T19:09:31.187Z,77.22
2023-04-20T19:12:09.775Z,77.48
2023-04-20T19:14:42.320Z,77.65
2023-04-20T19:21:44.034Z,78.09
2023-04-20T19:28:40.706Z,78.98
2023-04-20T19:39:29.136Z,79.80
2023-04-20T19:42:26.451Z,79.70
2023-04-20T19:49:37.864Z,80.55
2023-04-20T19:56:42.629Z,80.58
2023-04-20T19:59:14.851Z,80.65
2023-04-20T20:01:48.337Z,81.33
2023-04-20T20:05:08.342Z,81.28
2023-04-20T20:07:47.574Z,81.10
2023-04-20T20:10:19.847Z,81.19
2023-04-20T20:12:58.650Z,81.23
2023-04-20T20:15:31.022Z,81.29
2023-04-20T20:18:10.693Z,81.46
2023-04-20T20:20:43.434Z,81.71
2023-04-20T20:23:15.956Z,81.96
2023-04-20T20:39:41.141Z,82.68
2023-04-20T20:46:50.085Z,82.91
2023-04-20T20:49:22.406Z,82.90
2023-04-20T20:56:25.872Z,83.27
2023-04-20T20:58:58.062Z,83.38
2023-04-20T21:01:37.736Z,83.24
2023-04-20T21:04:10.065Z,83.49
2023-04-20T21:06:48.644Z,83.73
2023-04-20T21:09:22.125Z,83.53
2023-04-20T21:12:01.085Z,83.57
2023-04-20T21:18:15.763Z,83.97
2023-04-20T21:20:49.523Z,83.99
2023-04-20T21:23:21.789Z,84.05
2023-04-20T21:30:28.290Z,84.57
2023-04-20T21:37:32.793Z,84.85
2023-04-20T21:40:37.231Z,84.85
2023-04-20T21:46:24.608Z,84.66
2023-04-20T21:48:57.030Z,84.93
2023-04-20T21:56:42.346Z,84.99
2023-04-20T21:59:15.569Z,85.22
2023-04-20T22:01:47.913Z,85.41
2023-04-20T22:05:01.052Z,85.55
2023-04-20T22:07:34.160Z,85.33
2023-04-20T22:10:10.975Z,85.59
2023-04-20T22:18:00.931Z,85.78
2023-04-20T22:20:40.695Z,85.76
2023-04-20T22:23:12.929Z,85.74
2023-04-20T22:34:57.180Z,86.62
2023-04-20T22:37:29.455Z,86.83
2023-04-20T22:40:01.675Z,87.09
2023-04-20T22:42:41.454Z,87.17
2023-04-20T22:45:14.363Z,87.59
2023-04-20T22:51:06.956Z,87.53
2023-04-20T22:53:54.618Z,87.73
2023-04-20T22:56:33.550Z,87.85
2023-04-20T22:59:05.853Z,88.01
2023-04-20T23:01:38.165Z,88.25
2023-04-20T23:04:55.025Z,88.38
2023-04-20T23:07:27.635Z,88.61
2023-04-20T23:10:01.506Z,88.76
2023-04-20T23:12:40.630Z,88.94
2023-04-20T23:19:46.010Z,89.15
2023-04-20T23:22:18.489Z,89.15
2023-04-20T23:24:50.925Z,89.27
2023-04-20T23:27:23.123Z,89.45
2023-04-20T23:33:49.326Z,89.76
2023-04-20T23:36:22.023Z,89.72
2023-04-20T23:43:26.933Z,89.86
2023-04-20T23:54:54.335Z,90.16
2023-04-20T23:57:26.579Z,90.18
2023-04-20T23:59:59.353Z,90.26
